Wolfville, Canada
Current Conditions -  °F | °C
As of 9:00 AM on Saturday 25 Oct 2014 (Local Time) from CYZX Reporting Station
Drizzle Drizzle  
Wind Chill: 46°   Ceiling: 2000
Heat Index: 46°   Visibility: 5mi
Dew Point: 45°   Wind: 3mph
Humidity: 93%   Direction: 290°WNW
Pressure: 29.55"   Gusts: NA
Location:  45.08°N, 64.37°W
Report Text: CYZX 251200Z 29003KT 5SM -DZ BR SCT013 OVC020 08/07 A2955 RMK SC3SC5 WNDY HILL UNAVBL -DZ INTMT SLP006
Loading
Personal Weather Stations






























Interactive Weather Map
Tropical Storm Tracking
New forecast layout! Learn more

10-Day Weather Forecast

Advertisements
Track Severe Weather on mobile